M I D A S
Marine Information and Data Acquisition System
Tripno 1072 of the Zeeleeuw from 2006-04-19 07:21:08 to 2006-04-19 10:26:23
Back to CruiseResearch ActivitiesStationsMapUnderway DataData graphs

EquipmentUnitsComment
TimeDGPSUTC
LatitudeDGPSDM.mWGS84
LongitudeDGPSDM.mWGS84
TemperatureSBE03/SBE38deg celciusITS90
ConductivitySBE21S/mITS90
SalinitySBE21 Practical Salinity Units
ChlorophylAChelsea fluorimeterg/lCalibrated in Aceton
Missing or incorrect values are displayed as -999
Sea surface data collected by the RV Zeeleeuw from 2006-04-19 07:20:00 to 2006-04-19 10:39:15
Time Latitude Longitude Temperature Conductivity Salinity ChlorophylA
2006-04-19 07:21:05 51°13.616 2°56.031 -999 0.017238 0.095343 11.724939
2006-04-19 07:22:05 51°13.638 2°55.933 -999 3.588226 27.702416 20.354546
2006-04-19 07:23:05 51°13.673 2°55.834 -999 3.504413 31.161415 10.949623
2006-04-19 07:24:04 51°13.707 2°55.744 -999 3.480086 31.243225 11.11817
2006-04-19 07:25:04 51°13.721 2°55.738 -999 3.463935 31.187348 11.522683
2006-04-19 07:26:05 51°13.716 2°55.726 -999 3.435569 30.930597 11.151879
2006-04-19 07:27:04 51°13.743 2°55.712 -999 3.447889 31.087968 11.455264
2006-04-19 07:28:04 51°13.824 2°55.642 -999 3.408963 30.693606 11.354136
2006-04-19 07:29:05 51°13.924 2°55.563 -999 3.43267 30.950197 11.556392
2006-04-19 07:30:04 51°14.014 2°55.499 -999 3.476775 31.424189 12.163161
2006-04-19 07:31:05 51°14.102 2°55.431 -999 3.42677 30.913951 11.522683
2006-04-19 07:32:05 51°14.203 2°55.334 -999 3.429254 30.942618 11.859777
2006-04-19 07:33:05 51°14.307 2°55.171 -999 3.452548 31.179732 12.331708
2006-04-19 07:34:05 51°14.394 2°54.965 -999 3.426563 30.911879 12.23058
2006-04-19 07:35:05 51°14.425 2°54.668 -999 3.470253 31.374186 12.466546
2006-04-19 07:36:05 51°14.355 2°54.352 -999 3.5505 32.269009 12.196871
2006-04-19 07:37:05 51°14.248 2°54.044 -999 3.634594 33.138592 12.297999
2006-04-19 07:38:04 51°14.142 2°53.744 -999 3.680582 33.580558 13.107024
2006-04-19 07:39:05 51°14.037 2°53.431 -999 3.68255 33.593078 13.34299
2006-04-19 07:40:05 51°13.929 2°53.128 -999 3.712383 33.856881 12.196871
2006-04-19 07:41:05 51°13.821 2°52.823 -999 3.72616 34.014439 12.331708
2006-04-19 07:42:04 51°13.711 2°52.526 -999 3.725332 34.032046 12.736221
2006-04-19 07:43:04 51°13.603 2°52.221 -999 3.725229 34.035195 12.601383
2006-04-19 07:44:04 51°13.485 2°51.927 -999 3.728544 34.081552 12.095742
2006-04-19 07:45:05 51°13.365 2°51.628 -999 3.727715 34.088278 12.129452
2006-04-19 07:46:05 51°13.272 2°51.314 -999 3.72844 34.087236 12.163161
2006-04-19 07:47:04 51°13.201 2°50.987 -999 3.726369 34.10323 12.196871
2006-04-19 07:48:04 51°13.124 2°50.659 -999 3.724815 34.124549 12.062033
2006-04-19 07:49:04 51°13.039 2°50.337 -999 3.721708 34.124973 12.028324
2006-04-19 07:50:05 51°12.949 2°50.009 -999 3.724298 34.18958 11.994614
2006-04-19 07:51:05 51°12.851 2°49.697 -999 3.724195 34.213161 12.028324
2006-04-19 07:52:05 51°12.729 2°49.404 -999 3.72202 34.198554 12.095742
2006-04-19 07:53:05 51°12.577 2°49.149 -999 3.718498 34.171861 12.163161
2006-04-19 07:54:04 51°12.427 2°48.897 -999 3.719637 34.177574 12.331708
2006-04-19 07:55:05 51°12.276 2°48.628 -999 3.719637 34.162286 12.466546
2006-04-19 07:56:04 51°12.135 2°48.377 -999 3.717876 34.145972 12.736221
2006-04-19 07:57:05 51°12.053 2°48.224 -999 3.720569 34.177767 13.039606
2006-04-19 07:58:05 51°12.038 2°48.198 -999 3.716218 34.137504 12.972187
2006-04-19 07:59:04 51°12.043 2°48.184 -999 3.718498 34.166764 13.140734
2006-04-19 08:00:04 51°12.046 2°48.17 -999 3.716944 34.15511 13.241862
2006-04-19 08:01:04 51°12.048 2°48.159 -999 3.713111 34.120135 13.275571
2006-04-19 08:02:04 51°12.048 2°48.148 -999 3.716012 34.156612 13.34299
2006-04-19 08:03:04 51°12.048 2°48.138 -999 3.714976 34.142611 13.3767
2006-04-19 08:04:04 51°12.047 2°48.128 -999 3.713525 34.132014 13.477828
2006-04-19 08:05:05 51°12.047 2°48.117 -999 3.71425 34.136039 13.511537
2006-04-19 08:06:05 51°12.046 2°48.107 -999 3.715494 34.147063 13.578956
2006-04-19 08:07:04 51°12.046 2°48.097 -999 3.717669 34.167628 13.646375
2006-04-19 08:08:04 51°12.045 2°48.087 -999 3.714043 34.127977 13.680084
2006-04-19 08:09:04 51°12.045 2°48.076 -999 3.718083 34.17102 13.747503
2006-04-19 08:10:04 51°12.044 2°48.066 -999 3.714872 34.133911 13.747503
2006-04-19 08:11:05 51°12.023 2°48.071 -999 3.716322 34.149599 13.814922
2006-04-19 08:12:04 51°11.968 2°48.003 -999 3.716115 34.133051 13.747503
2006-04-19 08:13:04 51°11.992 2°47.888 -999 3.715701 34.132206 13.410409
2006-04-19 08:14:05 51°12.055 2°47.877 -999 3.716115 34.14663 13.578956
2006-04-19 08:15:04 51°12.128 2°47.906 -999 3.714147 34.134979 13.3767
2006-04-19 08:16:04 51°12.178 2°47.964 -999 3.7128 34.127988 13.275571
2006-04-19 08:17:04 51°12.217 2°48.026 -999 3.713526 34.148154 13.275571
2006-04-19 08:18:04 51°12.252 2°48.09 -999 3.71394 34.138803 13.208153
2006-04-19 08:19:04 51°12.283 2°48.161 -999 3.712593 34.121623 13.241862
2006-04-19 08:20:05 51°12.315 2°48.23 -999 3.714043 34.136466 13.241862
2006-04-19 08:21:05 51°12.35 2°48.294 -999 3.713007 34.125015 13.208153
2006-04-19 08:22:04 51°12.382 2°48.359 -999 3.714872 34.146647 13.208153
2006-04-19 08:23:05 51°12.41 2°48.431 -999 3.713422 34.131803 13.241862
2006-04-19 08:24:04 51°12.436 2°48.5 -999 3.713111 34.120135 13.275571
2006-04-19 08:25:04 51°12.466 2°48.567 -999 3.712904 34.112925 13.309281
2006-04-19 08:26:05 51°12.5 2°48.631 -999 3.71798 34.172509 13.34299
2006-04-19 08:27:05 51°12.531 2°48.697 -999 3.717047 34.151924 13.34299
2006-04-19 08:28:04 51°12.56 2°48.765 -999 3.718187 34.155941 13.34299
2006-04-19 08:29:04 51°12.589 2°48.833 -999 3.717254 34.138767 13.34299
2006-04-19 08:30:04 51°12.618 2°48.9 -999 3.717772 34.139822 13.275571
2006-04-19 08:31:05 51°12.648 2°48.969 -999 3.717979 34.1377 13.275571
2006-04-19 08:32:05 51°12.678 2°49.035 -999 3.721605 34.175624 13.241862
2006-04-19 08:33:05 51°12.708 2°49.102 -999 3.720258 34.160155 13.174443
2006-04-19 08:34:04 51°12.736 2°49.169 -999 3.720362 34.158669 13.107024
2006-04-19 08:35:05 51°12.766 2°49.24 -999 3.717876 34.133249 13.073315
2006-04-19 08:36:05 51°12.795 2°49.309 -999 3.71943 34.148288 13.039606
2006-04-19 08:37:04 51°12.825 2°49.375 -999 3.714872 34.105079 13.005896
2006-04-19 08:38:05 51°12.86 2°49.437 -999 3.71394 34.118433 13.005896
2006-04-19 08:39:05 51°12.886 2°49.508 -999 3.712696 34.106565 12.938477
2006-04-19 08:40:04 51°12.91 2°49.604 -999 3.7128 34.099995 12.938477
2006-04-19 08:41:05 51°12.911 2°49.711 -999 3.713629 34.096606 12.904768
2006-04-19 08:42:04 51°12.881 2°49.812 -999 3.718912 34.14893 12.938477
2006-04-19 08:43:05 51°12.841 2°49.903 -999 3.719222 34.131757 13.039606
2006-04-19 08:44:04 51°12.851 2°49.965 -999 3.719325 34.089655 13.073315
2006-04-19 08:45:04 51°12.883 2°49.974 -999 3.725126 34.114197 13.140734
2006-04-19 08:46:05 51°12.939 2°49.973 -999 3.726783 34.119273 13.174443
2006-04-19 08:47:05 51°13.006 2°50.106 -999 3.725644 34.116101 13.039606
2006-04-19 08:48:05 51°13.106 2°50.331 -999 3.722433 34.113765 12.938477
2006-04-19 08:49:04 51°13.204 2°50.605 -999 3.728131 34.180392 12.904768
2006-04-19 08:50:05 51°13.3 2°50.894 -999 3.722536 34.109749 12.80364
2006-04-19 08:51:05 51°13.401 2°51.174 -999 3.722743 34.096654 12.871059
2006-04-19 08:52:04 51°13.503 2°51.447 -999 3.722743 34.082303 13.005896
2006-04-19 08:53:04 51°13.599 2°51.73 -999 3.722743 34.048586 13.241862
2006-04-19 08:54:05 51°13.696 2°52.015 -999 3.7244 34.065469 13.241862
2006-04-19 08:55:05 51°13.791 2°52.297 -999 3.716527 33.976048 13.612665
2006-04-19 08:56:04 51°13.889 2°52.568 -999 3.695395 33.724356 14.320563
2006-04-19 08:57:05 51°13.988 2°52.85 -999 3.677889 33.57228 14.152016
2006-04-19 08:58:04 51°14.085 2°53.121 -999 3.674575 33.574282 14.118306
2006-04-19 08:59:05 51°14.185 2°53.4 -999 3.674161 33.586687 14.219435
2006-04-19 09:00:04 51°14.289 2°53.656 -999 3.684105 33.740493 14.387982
2006-04-19 09:01:05 51°14.465 2°53.815 -999 3.684416 33.767106 14.48911
2006-04-19 09:02:04 51°14.649 2°53.934 -999 3.682863 33.778081 14.725076
2006-04-19 09:03:05 51°14.857 2°53.879 -999 3.682138 33.799223 14.286853
2006-04-19 09:04:04 51°15.002 2°53.645 -999 3.691046 33.879309 13.983469
2006-04-19 09:05:04 51°15.018 2°53.304 -999 3.6868 33.867062 13.814922
2006-04-19 09:06:05 51°14.952 2°52.956 -999 3.683589 33.820767 13.949759
2006-04-19 09:07:05 51°14.89 2°52.614 -999 3.680895 33.742904 14.152016
2006-04-19 09:08:04 51°14.823 2°52.279 -999 3.687524 33.835757 13.983469
2006-04-19 09:09:04 51°14.733 2°51.947 -999 3.701821 34.113232 13.612665
2006-04-19 09:10:05 51°14.655 2°51.599 -999 3.705966 34.230086 13.612665
2006-04-19 09:11:05 51°14.569 2°51.261 -999 3.696849 34.100519 13.34299
2006-04-19 09:12:04 51°14.495 2°50.942 -999 3.702237 34.202858 13.477828
2006-04-19 09:13:04 51°14.432 2°50.697 -999 3.712802 34.298699 13.34299
2006-04-19 09:14:04 51°14.394 2°50.576 -999 3.707002 34.27762 13.309281
2006-04-19 09:15:05 51°14.395 2°50.562 -999 3.709177 34.264831 13.208153
2006-04-19 09:16:05 51°14.398 2°50.552 -999 3.713942 34.337054 13.34299
2006-04-19 09:17:05 51°14.4 2°50.542 -999 3.712389 34.341695 13.410409
2006-04-19 09:18:04 51°14.403 2°50.532 -999 3.71011 34.331982 13.444118
2006-04-19 09:19:05 51°14.406 2°50.521 -999 3.711456 34.339835 13.444118
2006-04-19 09:20:05 51°14.405 2°50.508 -999 3.709903 34.332429 13.410409
2006-04-19 09:21:04 51°14.397 2°50.498 -999 3.708142 34.315142 13.3767
2006-04-19 09:22:04 51°14.351 2°50.458 -999 3.711767 34.321532 13.275571
2006-04-19 09:23:04 51°14.249 2°50.317 -999 3.714253 34.326502 13.208153
2006-04-19 09:24:05 51°14.122 2°50.158 -999 3.717775 34.374801 13.3767
2006-04-19 09:25:04 51°14.022 2°49.964 -999 3.715808 34.414861 13.545247
2006-04-19 09:26:05 51°13.969 2°49.788 -999 3.713426 34.434349 13.545247
2006-04-19 09:27:05 51°14.007 2°49.695 -999 3.711976 34.446202 13.511537
2006-04-19 09:28:05 51°14.075 2°49.704 -999 3.717259 34.513828 13.511537
2006-04-19 09:29:04 51°14.147 2°49.743 -999 3.711251 34.443905 13.34299
2006-04-19 09:30:04 51°14.213 2°49.783 -999 3.716533 34.46991 13.107024
2006-04-19 09:31:04 51°14.27 2°49.819 -999 3.715601 34.433458 12.938477
2006-04-19 09:32:05 51°14.314 2°49.856 -999 3.715911 34.393495 12.76993
2006-04-19 09:33:05 51°14.34 2°49.905 -999 3.7156 34.376503 12.76993
2006-04-19 09:34:04 51°14.354 2°49.964 -999 3.711974 34.324525 12.80364
2006-04-19 09:35:04 51°14.367 2°50.036 -999 3.711871 34.32088 12.904768
2006-04-19 09:36:05 51°14.39 2°50.103 -999 3.711456 34.308021 12.938477
2006-04-19 09:37:04 51°14.418 2°50.166 -999 3.713838 34.305923 12.938477
2006-04-19 09:38:05 51°14.443 2°50.236 -999 3.712077 34.284377 13.073315
2006-04-19 09:39:04 51°14.468 2°50.303 -999 3.712077 34.275804 13.140734
2006-04-19 09:40:04 51°14.492 2°50.371 -999 3.713113 34.287313 13.275571
2006-04-19 09:41:04 51°14.517 2°50.439 -999 3.712077 34.277518 13.410409
2006-04-19 09:42:04 51°14.543 2°50.506 -999 3.710731 34.265384 13.545247
2006-04-19 09:43:04 51°14.57 2°50.572 -999 3.711456 34.263416 13.612665
2006-04-19 09:44:05 51°14.597 2°50.639 -999 3.713113 34.277028 13.781212
2006-04-19 09:45:05 51°14.624 2°50.705 -999 3.711663 34.256981 13.882341
2006-04-19 09:46:04 51°14.65 2°50.769 -999 3.713216 34.263532 13.781212
2006-04-19 09:47:05 51°14.677 2°50.836 -999 3.711455 34.223205 13.680084
2006-04-19 09:48:04 51°14.701 2°50.901 -999 3.714148 34.246588 13.646375
2006-04-19 09:49:05 51°14.727 2°50.967 -999 3.711248 34.226205 13.781212
2006-04-19 09:50:04 51°14.754 2°51.031 -999 3.714045 34.244669 13.646375
2006-04-19 09:51:04 51°14.78 2°51.097 -999 3.712491 34.234697 13.646375
2006-04-19 09:52:05 51°14.806 2°51.164 -999 3.71332 34.244063 13.646375
2006-04-19 09:53:05 51°14.831 2°51.228 -999 3.715599 34.257204 13.545247
2006-04-19 09:54:05 51°14.857 2°51.291 -999 3.712387 34.202039 13.410409
2006-04-19 09:55:05 51°14.882 2°51.356 -999 3.713319 34.209044 13.444118
2006-04-19 09:56:05 51°14.907 2°51.421 -999 3.710004 34.180154 13.477828
2006-04-19 09:57:05 51°14.934 2°51.485 -999 3.710626 34.18312 13.578956
2006-04-19 09:58:05 51°14.955 2°51.553 -999 3.708243 34.128889 13.680084
2006-04-19 09:59:05 51°14.949 2°51.648 -999 3.707 34.088123 13.781212
2006-04-19 10:00:05 51°14.912 2°51.753 -999 3.705342 34.044883 13.848631
2006-04-19 10:01:05 51°14.84 2°51.811 -999 3.705548 34.009787 13.949759
2006-04-19 10:02:05 51°14.753 2°51.8 -999 3.701819 33.944701 14.017178
2006-04-19 10:03:04 51°14.687 2°51.716 -999 3.699229 33.898915 14.118306
2006-04-19 10:04:04 51°14.668 2°51.628 -999 3.698815 33.891326 14.152016
2006-04-19 10:05:05 51°14.663 2°51.562 -999 3.705341 33.950329 14.253144
2006-04-19 10:06:05 51°14.663 2°51.51 -999 3.703994 33.923975 14.354272
2006-04-19 10:07:05 51°14.663 2°51.466 -999 3.70648 33.945121 14.48911
2006-04-19 10:08:05 51°14.662 2°51.432 -999 3.707101 33.954825 14.590238
2006-04-19 10:09:05 51°14.662 2°51.403 -999 3.706169 33.941112 14.691366
2006-04-19 10:10:04 51°14.661 2°51.377 -999 3.705133 33.928868 14.758785
2006-04-19 10:11:05 51°14.661 2°51.354 -999 3.707516 33.949796 14.826204
2006-04-19 10:12:05 51°14.661 2°51.333 -999 3.708137 33.948563 14.826204
2006-04-19 10:13:05 51°14.65 2°51.244 -999 3.709794 33.962094 14.859913
2006-04-19 10:14:05 51°14.555 2°51.244 -999 3.710623 33.96213 14.792494
2006-04-19 10:15:05 51°14.543 2°51.483 -999 3.715077 33.983129 14.691366
2006-04-19 10:16:05 51°14.557 2°51.795 -999 3.710623 33.927692 14.725076
2006-04-19 10:17:05 51°14.574 2°52.112 -999 3.705651 33.926583 14.893623
2006-04-19 10:18:05 51°14.586 2°52.43 -999 3.706791 33.987034 14.826204
2006-04-19 10:19:05 51°14.59 2°52.75 -999 3.720776 34.15527 29.422375
2006-04-19 10:20:05 51°14.592 2°53.069 -999 3.720465 34.150397 28.54593
2006-04-19 10:21:05 51°14.623 2°53.38 -999 3.720258 34.144039 27.703195
2006-04-19 10:22:05 51°14.61 2°53.704 -999 3.720258 34.140649 26.89417
2006-04-19 10:23:05 51°14.584 2°54.04 -999 3.720776 34.129844 26.253691
2006-04-19 10:24:05 51°14.552 2°54.367 -999 3.721501 34.119473 25.916597
2006-04-19 10:25:05 51°14.503 2°54.683 -999 3.722847 34.114611 25.714341
2006-04-19 10:26:05 51°14.407 2°54.974 -999 3.725022 34.11652 25.545794
2006-04-19 10:27:05 51°14.288 2°55.231 -999 3.727508 34.119066 25.512084
2006-04-19 10:28:05 51°14.157 2°55.391 -999 3.730305 34.126466 25.444665
2006-04-19 10:29:05 51°14.054 2°55.469 -999 3.733413 34.13787 25.444665
2006-04-19 10:30:05 51°13.963 2°55.537 -999 3.73621 34.14526 25.478375
2006-04-19 10:31:05 51°13.884 2°55.593 -999 3.739006 34.151802 25.512084
2006-04-19 10:32:05 51°13.819 2°55.642 -999 3.7417 34.158972 25.545794
2006-04-19 10:33:05 51°13.766 2°55.705 -999 3.744393 34.165297 25.579503
2006-04-19 10:34:05 51°13.721 2°55.777 -999 3.746983 34.171407 25.613212
2006-04-19 10:35:04 51°13.68 2°55.855 -999 3.749469 34.176462 25.646922
2006-04-19 10:36:04 51°13.645 2°55.934 -999 3.751955 34.180675 25.646922
2006-04-19 10:37:05 51°13.621 2°56.009 -999 3.754441 34.186567 25.646922
2006-04-19 10:38:05 51°13.608 2°56.075 -999 3.756823 34.190566 25.646922
2006-04-19 10:39:06 51°13.602 2°56.097 -999 3.75931 34.195614 25.613212